Time;durP1;ratioP1;P1;durP2;ratioP2;P2;SDS_P1;SDS_P2;PMS_P1;PMS_P2;Temp;Humidity;BMP_temperature;BMP_pressure;BME280_temperature;BME280_humidity;BME280_pressure;Samples;Min_cycle;Max_cycle;Signal;HPM_P1;HPM_P2
2021/10/28 00:13:14;;;;;;;50.03;27.67;;;;;;;6.54;72.27;99434.34;5090117;28;20495;-72
2021/10/28 00:15:42;;;;;;;47.55;27.77;;;;;;;6.49;72.42;99433.44;5088950;28;20024;-73
2021/10/28 00:20:36;;;;;;;49.95;26.85;;;;;;;6.44;72.30;99436.06;5090160;28;20536;-73
2021/10/28 00:23:03;;;;;;;49.15;29.27;;;;;;;6.43;72.20;99428.97;5084311;28;20020;-73
2021/10/28 00:25:29;;;;;;;49.28;27.08;;;;;;;6.43;72.41;99427.06;5086637;28;20032;-73
2021/10/28 00:27:55;;;;;;;44.25;26.10;;;;;;;6.43;72.59;99432.50;5092421;28;20040;-73
2021/10/28 00:30:20;;;;;;;45.58;26.33;;;;;;;6.42;72.42;99433.56;5092304;28;20027;-73
2021/10/28 00:32:47;;;;;;;45.55;27.15;;;;;;;6.40;72.50;99424.81;5092841;28;20094;-73
2021/10/28 00:35:13;;;;;;;46.28;26.58;;;;;;;6.39;72.24;99428.59;5091614;28;20024;-74
2021/10/28 00:37:39;;;;;;;42.38;24.48;;;;;;;6.39;72.85;99429.44;5093851;28;20020;-74
2021/10/28 00:40:07;;;;;;;43.63;24.08;;;;;;;6.42;72.91;99438.22;5088858;28;20369;-73
2021/10/28 00:42:33;;;;;;;37.47;21.25;;;;;;;6.39;72.71;99434.91;5093763;28;20046;-74
2021/10/28 00:45:01;;;;;;;38.90;23.45;;;;;;;6.37;72.75;99437.03;5089543;28;20097;-73
2021/10/28 00:47:30;;;;;;;39.80;23.20;;;;;;;6.35;72.36;99427.44;5085366;28;20036;-73
2021/10/28 00:49:55;;;;;;;46.25;24.60;;;;;;;6.34;72.50;99420.34;5092357;28;20031;-74
2021/10/28 00:52:20;;;;;;;41.17;24.02;;;;;;;6.35;72.25;99428.28;5095888;28;20040;-73
2021/10/28 00:54:46;;;;;;;42.78;24.73;;;;;;;6.35;72.30;99427.44;5088392;28;20468;-73
2021/10/28 00:57:12;;;;;;;35.25;20.17;;;;;;;6.33;73.03;99424.13;5092937;28;20099;-73
2021/10/28 00:59:38;;;;;;;41.45;24.00;;;;;;;6.30;73.18;99424.66;5094885;28;20037;-73
2021/10/28 01:02:03;;;;;;;44.70;25.10;;;;;;;6.26;72.50;99424.28;5074178;28;20024;-73
2021/10/28 01:04:30;;;;;;;43.38;24.02;;;;;;;6.23;72.56;99416.59;5093696;28;20020;-73
2021/10/28 01:06:57;;;;;;;44.75;24.90;;;;;;;6.23;72.47;99417.44;5084233;28;20115;-73
2021/10/28 01:09:23;;;;;;;43.58;23.55;;;;;;;6.22;72.61;99413.06;5088651;28;20079;-73
2021/10/28 01:11:51;;;;;;;45.58;26.33;;;;;;;6.21;72.71;99421.47;5092629;28;20530;-74
2021/10/28 01:14:17;;;;;;;43.00;26.33;;;;;;;6.20;73.11;99417.09;5073454;28;20024;-73
2021/10/28 01:16:43;;;;;;;48.92;26.58;;;;;;;6.18;73.05;99405.63;5091991;28;20030;-73
2021/10/28 01:19:08;;;;;;;47.75;28.05;;;;;;;6.17;72.75;99415.69;5092211;28;20024;-73
2021/10/28 01:21:34;;;;;;;48.45;28.65;;;;;;;6.16;72.55;99413.19;5083295;28;20028;-73
2021/10/28 01:24:01;;;;;;;46.28;27.58;;;;;;;6.15;72.84;99408.81;5091657;28;20027;-73
2021/10/28 01:26:26;;;;;;;42.63;25.60;;;;;;;6.14;73.03;99410.72;5091775;28;20515;-73
2021/10/28 01:29:01;;;;;;;44.60;24.60;;;;;;;6.14;72.69;99408.00;5086525;28;20076;-73
2021/10/28 01:31:29;;;;;;;39.97;24.02;;;;;;;6.12;72.85;99410.16;5089012;28;20028;-73
2021/10/28 01:33:56;;;;;;;45.80;26.65;;;;;;;6.11;73.02;99409.31;5082049;28;20028;-73
2021/10/28 01:36:24;;;;;;;47.58;26.02;;;;;;;6.15;72.64;99406.09;5084057;28;20085;-73
2021/10/28 01:38:52;;;;;;;45.03;25.13;;;;;;;6.19;73.13;99407.25;5089644;28;20036;-73
2021/10/28 01:41:18;;;;;;;44.60;24.90;;;;;;;6.19;72.96;99407.25;5086041;28;20039;-73
2021/10/28 01:43:44;;;;;;;48.35;25.83;;;;;;;6.18;72.75;99403.72;5090429;28;20024;-73
2021/10/28 01:46:10;;;;;;;48.00;26.02;;;;;;;6.17;72.93;99407.53;5091398;28;20495;-74
2021/10/28 01:48:40;;;;;;;50.35;26.73;;;;;;;6.14;73.11;99402.56;5099364;28;20036;-73
2021/10/28 01:51:07;;;;;;;47.95;27.60;;;;;;;6.15;72.96;99401.50;5103612;28;20040;-73
2021/10/28 01:53:41;;;;;;;42.78;25.73;;;;;;;6.15;72.74;99409.66;5089092;28;20020;-73
2021/10/28 01:56:08;;;;;;;49.05;27.45;;;;;;;6.13;72.48;99403.63;5091274;28;20035;-73
2021/10/28 01:58:35;;;;;;;45.00;26.65;;;;;;;6.14;72.69;99407.16;5092749;28;20069;-73
2021/10/28 02:01:01;;;;;;;48.20;26.60;;;;;;;6.09;72.62;99406.03;5111157;28;20045;-74
2021/10/28 02:03:26;;;;;;;47.80;27.20;;;;;;;6.08;72.39;99417.16;5093702;28;20508;-73
2021/10/28 02:05:52;;;;;;;48.55;26.00;;;;;;;6.05;72.78;99410.31;5089475;28;20035;-74
2021/10/28 02:08:17;;;;;;;47.03;25.90;;;;;;;6.02;72.41;99412.66;5099956;28;20073;-73
2021/10/28 02:10:44;;;;;;;48.05;26.67;;;;;;;5.96;72.27;99406.28;5097297;28;20405;-73
2021/10/28 02:13:10;;;;;;;51.17;27.45;;;;;;;5.93;72.41;99409.47;5090909;28;20224;-73
2021/10/28 02:15:36;;;;;;;45.95;26.63;;;;;;;5.86;72.32;99406.06;5090300;28;20391;-74
2021/10/28 02:18:01;;;;;;;51.97;28.25;;;;;;;5.81;72.05;99412.25;5088864;28;20078;-73
2021/10/28 02:20:27;;;;;;;50.97;27.90;;;;;;;5.78;72.29;99413.53;5089455;28;20028;-74
2021/10/28 02:22:52;;;;;;;51.65;28.15;;;;;;;5.72;71.87;99406.34;5090199;28;20024;-74
2021/10/28 02:25:18;;;;;;;51.30;27.52;;;;;;;5.65;72.21;99414.63;5091206;28;20101;-74
2021/10/28 02:27:46;;;;;;;52.75;29.08;;;;;;;5.60;71.90;99414.53;5091444;28;20044;-74
2021/10/28 02:30:14;;;;;;;46.17;27.27;;;;;;;5.57;71.82;99417.72;5088079;28;20035;-73
2021/10/28 02:32:43;;;;;;;49.47;26.90;;;;;;;5.53;72.02;99422.00;5115016;28;20035;-74
2021/10/28 02:35:09;;;;;;;45.17;26.63;;;;;;;5.46;71.70;99419.41;5115184;28;20031;-74
2021/10/28 02:37:35;;;;;;;44.65;25.42;;;;;;;5.43;72.07;99421.78;5092981;28;20089;-73
2021/10/28 02:40:00;;;;;;;48.13;26.77;;;;;;;5.39;71.99;99417.91;5091229;28;20029;-73
2021/10/28 02:42:26;;;;;;;50.10;28.35;;;;;;;5.36;71.50;99414.59;5087619;28;20110;-74
2021/10/28 02:44:51;;;;;;;44.30;25.90;;;;;;;5.36;71.94;99419.19;5091298;28;20024;-73
2021/10/28 02:47:17;;;;;;;47.25;26.85;;;;;;;5.31;71.98;99425.34;5088749;28;20498;-73
2021/10/28 02:49:43;;;;;;;48.58;27.38;;;;;;;5.27;71.46;99435.03;5069711;28;20019;-73
2021/10/28 02:52:09;;;;;;;52.72;26.75;;;;;;;5.24;71.84;99426.53;5091460;28;20487;-74
2021/10/28 02:54:37;;;;;;;48.95;27.40;;;;;;;5.22;72.21;99432.19;5093103;28;20031;-73
2021/10/28 02:57:03;;;;;;;53.05;28.92;;;;;;;5.19;71.97;99430.78;5087556;28;20031;-74
2021/10/28 02:59:28;;;;;;;80.75;35.65;;;;;;;5.17;72.12;99427.47;5086665;28;20036;-73
2021/10/28 03:01:56;;;;;;;75.68;35.00;;;;;;;5.16;72.08;99427.69;5089199;28;20103;-74
2021/10/28 03:04:24;;;;;;;88.00;37.97;;;;;;;5.14;71.79;99430.69;5089926;28;20072;-74
2021/10/28 03:06:50;;;;;;;116.60;44.58;;;;;;;5.13;71.87;99433.63;5085242;28;20476;-73
2021/10/28 03:09:18;;;;;;;95.43;38.42;;;;;;;5.13;72.17;99429.03;5088666;28;20028;-73
2021/10/28 03:11:46;;;;;;;66.05;31.13;;;;;;;5.13;72.09;99420.03;5087796;28;20020;-74
2021/10/28 03:14:13;;;;;;;52.17;27.08;;;;;;;5.14;72.15;99424.41;5080675;28;20066;-74
2021/10/28 03:17:26;;;;;;;42.72;23.70;;;;;;;5.15;71.79;99423.31;5084549;28;20051;-74
2021/10/28 03:27:23;;;;;;;42.17;24.42;;;;;;;5.16;72.43;99423.09;5088830;28;20047;-74
2021/10/28 03:29:49;;;;;;;40.80;24.75;;;;;;;5.16;72.48;99423.09;5080287;28;20020;-74
2021/10/28 03:32:14;;;;;;;38.35;20.65;;;;;;;5.17;72.58;99427.47;5082021;28;20564;-73
2021/10/28 03:34:40;;;;;;;38.58;20.90;;;;;;;5.20;72.37;99439.78;5087709;28;20539;-74
2021/10/28 03:37:10;;;;;;;42.35;24.00;;;;;;;5.20;72.28;99437.88;5088357;28;20035;-74
2021/10/28 04:30:04;;;;;;;52.50;26.92;;;;;;;5.13;73.26;99441.78;5081854;28;20106;-74
2021/10/28 04:32:29;;;;;;;55.03;27.33;;;;;;;5.11;73.21;99438.47;5084773;28;20103;-74
2021/10/28 04:34:55;;;;;;;51.78;28.58;;;;;;;5.06;72.72;99437.31;5088443;28;20119;-74
2021/10/28 04:37:20;;;;;;;49.75;27.88;;;;;;;5.05;72.74;99440.25;5089853;28;20429;-74
2021/10/28 04:39:47;;;;;;;48.03;26.33;;;;;;;5.03;73.31;99443.22;5081227;28;20541;-74
2021/10/28 04:42:13;;;;;;;51.00;26.38;;;;;;;5.03;72.70;99445.94;5077068;28;20027;-73
2021/10/28 04:44:40;;;;;;;49.00;27.42;;;;;;;5.03;73.08;99437.78;5080514;28;20109;-73
2021/10/28 04:47:06;;;;;;;49.33;27.48;;;;;;;4.99;73.16;99446.63;5086448;28;20113;-73
2021/10/28 04:49:31;;;;;;;55.72;30.10;;;;;;;4.95;72.36;99450.88;5087632;28;20032;-73
2021/10/28 04:51:56;;;;;;;51.25;27.35;;;;;;;4.90;72.66;99451.56;5089018;28;20023;-73
2021/10/28 04:54:22;;;;;;;57.38;30.08;;;;;;;4.92;72.64;99460.34;5088607;28;20456;-74
2021/10/28 04:56:47;;;;;;;74.05;35.80;;;;;;;4.95;72.92;99465.31;5087303;28;20058;-74
2021/10/28 04:59:13;;;;;;;89.80;38.97;;;;;;;4.98;73.50;99466.72;5077229;28;20423;-73
2021/10/28 05:01:38;;;;;;;79.80;35.95;;;;;;;4.99;72.79;99466.50;5078555;28;20100;-74
2021/10/28 05:04:04;;;;;;;74.65;36.17;;;;;;;4.98;73.52;99469.44;5081521;28;20027;-74
2021/10/28 05:06:29;;;;;;;73.53;35.65;;;;;;;4.90;72.68;99471.41;5084820;28;20020;-74
2021/10/28 05:08:54;;;;;;;74.13;35.63;;;;;;;4.90;72.88;99470.59;5095984;28;20127;-73
2021/10/28 05:11:20;;;;;;;80.13;34.60;;;;;;;4.89;73.14;99471.66;5087926;28;20039;-73
2021/10/28 05:13:46;;;;;;;73.78;35.60;;;;;;;4.88;72.71;99462.69;5088969;28;20069;-74
2021/10/28 05:16:11;;;;;;;73.45;36.05;;;;;;;4.89;72.92;99467.03;5095275;28;20060;-74
2021/10/28 05:18:41;;;;;;;69.95;39.35;;;;;;;4.93;73.45;99470.16;5111502;28;20070;-74
2021/10/28 05:21:12;;;;;;;76.13;43.67;;;;;;;4.97;72.95;99474.06;5101347;28;20031;-74
2021/10/28 05:23:39;;;;;;;61.83;35.35;;;;;;;4.99;73.31;99466.50;5098552;28;20034;-73
2021/10/28 05:26:04;;;;;;;66.13;34.63;;;;;;;5.03;72.93;99464.13;5097595;28;20066;-74
2021/10/28 05:28:30;;;;;;;78.70;42.35;;;;;;;5.04;73.63;99468.50;5099759;28;20076;-74
2021/10/28 05:30:56;;;;;;;82.63;43.60;;;;;;;5.06;73.08;99466.38;5089063;28;20028;-74
2021/10/28 05:33:21;;;;;;;79.90;43.50;;;;;;;5.09;73.28;99463.19;5090611;28;20040;-74
2021/10/28 05:35:47;;;;;;;77.50;41.35;;;;;;;5.10;73.63;99461.28;5090285;28;20028;-74
2021/10/28 05:38:12;;;;;;;71.28;37.15;;;;;;;5.10;73.83;99464.00;5103426;28;20031;-73
2021/10/28 05:40:37;;;;;;;76.78;39.05;;;;;;;5.10;73.18;99467.56;5101871;28;20120;-73
2021/10/28 05:43:03;;;;;;;75.90;37.22;;;;;;;5.09;73.21;99465.09;5090241;28;20048;-75
2021/10/28 05:45:31;;;;;;;72.47;36.13;;;;;;;5.09;73.38;99465.09;5071351;28;20055;-75
2021/10/28 05:47:56;;;;;;;69.55;32.17;;;;;;;5.10;72.91;99462.13;5098340;28;20028;-76
2021/10/28 05:50:23;;;;;;;61.63;31.95;;;;;;;5.07;73.18;99463.44;5089483;28;20392;-75
2021/10/28 05:52:51;;;;;;;64.32;32.47;;;;;;;5.05;73.21;99465.56;5104533;28;20020;-75
2021/10/28 05:55:17;;;;;;;71.35;33.85;;;;;;;5.05;73.66;99457.41;5099456;28;20031;-76
2021/10/28 05:57:42;;;;;;;72.97;34.92;;;;;;;5.06;73.52;99466.38;5094332;28;20380;-75
2021/10/28 06:00:09;;;;;;;74.65;35.95;;;;;;;5.04;73.20;99463.91;5084244;28;20116;-75
2021/10/28 06:02:35;;;;;;;79.13;38.00;;;;;;;5.05;73.59;99462.00;5115311;28;20616;-76
2021/10/28 06:05:02;;;;;;;84.38;37.83;;;;;;;5.05;73.97;99462.00;5101270;28;20030;-76
2021/10/28 06:07:28;;;;;;;74.95;36.05;;;;;;;5.03;73.40;99464.13;5094941;28;20024;-76
2021/10/28 06:09:54;;;;;;;72.00;34.95;;;;;;;5.02;73.56;99460.59;5102469;28;20039;-75
2021/10/28 06:12:19;;;;;;;72.03;32.22;;;;;;;5.01;73.92;99464.38;5104658;28;20464;-76
2021/10/28 06:14:44;;;;;;;63.53;31.23;;;;;;;4.98;73.85;99467.56;5113611;28;20024;-75
2021/10/28 06:17:13;;;;;;;73.57;35.80;;;;;;;4.98;73.79;99470.28;5089969;28;20043;-76
2021/10/28 06:19:38;;;;;;;72.93;36.17;;;;;;;4.99;73.81;99462.94;5070187;28;20034;-75
2021/10/28 06:22:04;;;;;;;73.30;35.60;;;;;;;5.01;73.85;99466.25;5092362;28;20024;-76
2021/10/28 06:24:30;;;;;;;71.40;34.58;;;;;;;5.04;74.11;99463.91;5095183;28;20016;-75
2021/10/28 06:26:55;;;;;;;65.28;34.63;;;;;;;5.08;74.01;99469.69;5094744;28;20028;-76
2021/10/28 06:29:21;;;;;;;63.92;33.97;;;;;;;5.09;73.91;99467.81;5075711;28;20040;-76
2021/10/28 06:31:48;;;;;;;70.75;35.03;;;;;;;5.15;73.92;99470.41;5094512;28;20101;-75
2021/10/28 06:34:27;;;;;;;68.32;33.35;;;;;;;5.20;73.91;99469.69;5091308;28;20548;-76
2021/10/28 06:36:55;;;;;;;68.55;32.88;;;;;;;5.24;74.04;99473.59;5088195;28;20012;-75
2021/10/28 06:39:20;;;;;;;68.80;33.35;;;;;;;5.30;74.51;99483.53;5090563;28;20024;-76
2021/10/28 06:41:45;;;;;;;62.97;32.28;;;;;;;5.36;74.25;99484.47;5092550;28;20016;-76
2021/10/28 06:44:11;;;;;;;65.47;34.78;;;;;;;5.42;74.46;99488.97;5083638;28;20152;-76
2021/10/28 06:46:36;;;;;;;71.78;35.97;;;;;;;5.48;74.38;99481.78;5080165;28;20016;-76
2021/10/28 06:49:07;;;;;;;73.75;36.38;;;;;;;5.57;74.39;99484.94;5081722;28;20103;-76
2021/10/28 06:51:37;;;;;;;59.22;28.52;;;;;;;5.65;74.49;99482.69;5083972;28;20035;-76
2021/10/28 06:54:27;;;;;;;76.18;36.15;;;;;;;5.72;74.76;99479.00;5088799;28;20124;-76
2021/10/28 07:02:32;;;;;;;108.90;46.35;;;;;;;6.01;74.31;99490.00;5075741;28;20102;-76
2021/10/28 07:04:58;;;;;;;108.22;46.15;;;;;;;6.11;74.68;99492.94;5078984;28;20373;-77
2021/10/28 07:07:30;;;;;;;80.22;39.03;;;;;;;6.21;74.52;99489.56;5081693;28;20103;-77
2021/10/28 07:10:03;;;;;;;68.03;32.35;;;;;;;6.32;74.45;99493.31;5066392;28;20031;-78
2021/10/28 07:15:08;;;;;;;65.25;34.08;;;;;;;6.50;74.70;99498.59;5093047;28;20594;-76
2021/10/28 07:17:41;;;;;;;55.63;29.13;;;;;;;6.59;75.14;99495.47;5098494;28;20081;-75
2021/10/28 07:20:24;;;;;;;57.97;29.92;;;;;;;6.67;74.49;99495.09;5114021;28;20277;-76
2021/10/28 07:25:41;;;;;;;62.80;32.10;;;;;;;6.87;74.82;99499.22;5082911;28;20086;-76
2021/10/28 07:31:00;;;;;;;58.53;30.42;;;;;;;7.06;74.84;99491.66;5104945;28;20043;-76
2021/10/28 08:24:00;;;;;;;46.05;23.52;;;;;;;8.90;72.79;99475.13;5085228;28;20046;-72
2021/10/28 08:29:30;;;;;;;39.15;22.80;;;;;;;9.08;72.82;99467.63;5088869;28;20043;-73
2021/10/28 08:31:55;;;;;;;41.65;23.05;;;;;;;9.16;72.36;99467.16;5089059;28;20038;-75
2021/10/28 08:34:36;;;;;;;34.83;20.23;;;;;;;9.25;72.72;99467.50;5108601;28;20110;-75
2021/10/28 08:37:11;;;;;;;41.55;23.42;;;;;;;9.34;72.60;99457.69;5099432;28;20027;-72
2021/10/28 08:39:40;;;;;;;38.72;22.42;;;;;;;9.44;72.81;99451.47;5088625;28;20066;-74
2021/10/28 08:42:08;;;;;;;38.75;20.92;;;;;;;9.52;72.39;99459.19;5089313;28;20020;-76
2021/10/28 08:44:38;;;;;;;37.65;21.83;;;;;;;9.59;71.54;99452.63;5107690;28;20495;-78
2021/10/28 08:47:04;;;;;;;;;;;;;;;9.67;72.08;99446.66;5087980;28;20028;-76
2021/10/28 08:49:41;;;;;;;34.13;18.90;;;;;;;9.73;71.89;99442.84;5091102;28;19946;-74
2021/10/28 09:28:16;;;;;;;20.80;12.88;;;;;;;11.17;68.65;99422.31;5099555;28;20459;-73
2021/10/28 09:30:54;;;;;;;20.48;11.27;;;;;;;11.28;68.37;99431.34;5091790;28;20093;-72
2021/10/28 09:33:32;;;;;;;21.33;11.77;;;;;;;11.36;67.69;99424.47;5085548;28;20012;-73
2021/10/28 09:36:18;;;;;;;20.45;11.13;;;;;;;11.44;67.95;99426.66;5089393;28;20032;-75
2021/10/28 09:50:14;;;;;;;15.88;9.48;;;;;;;11.88;65.38;99427.88;5098707;28;20024;-77
2021/10/28 09:52:55;;;;;;;17.95;10.30;;;;;;;11.94;65.68;99418.50;5090789;28;20019;-76
2021/10/28 09:58:31;;;;;;;14.82;7.53;;;;;;;12.10;64.03;99427.53;5090215;28;20031;-76
2021/10/28 10:00:58;;;;;;;13.13;7.68;;;;;;;12.14;63.04;99420.38;5089432;28;20028;-77
2021/10/28 10:03:30;;;;;;;16.50;8.35;;;;;;;12.21;63.75;99420.88;5091345;28;20024;-77
2021/10/28 10:06:05;;;;;;;16.73;8.45;;;;;;;12.29;62.56;99422.22;5088865;28;20031;-82
2021/10/28 10:08:32;;;;;;;13.52;8.27;;;;;;;12.36;61.10;99419.16;5086518;28;20032;-80
2021/10/28 10:10:57;;;;;;;18.55;9.82;;;;;;;12.46;61.92;99418.28;5073469;28;20082;-81
2021/10/28 10:13:27;;;;;;;16.00;10.02;;;;;;;12.51;61.06;99427.31;5068741;28;20028;-76
2021/10/28 10:16:04;;;;;;;16.33;9.25;;;;;;;12.57;60.27;99405.25;5092848;28;20028;-74
2021/10/28 10:18:34;;;;;;;17.48;10.32;;;;;;;12.62;60.63;99408.81;5092317;28;20043;-76
2021/10/28 11:21:33;;;;;;;131.93;58.15;;;;;;;13.79;53.29;99337.41;5084919;28;20392;-74
2021/10/28 12:55:55;;;;;;;14.65;9.43;;;;;;;21.86;42.51;99236.28;5096178;28;20037;-75
2021/10/28 14:15:13;;;;;;;24.08;15.85;;;;;;;20.61;39.55;99211.50;5085401;28;20382;-78
2021/10/28 15:00:48;;;;;;;32.58;15.70;;;;;;;16.04;46.05;99211.19;5088490;28;20762;-79
2021/10/28 15:49:13;;;;;;;45.35;18.75;;;;;;;11.74;52.92;99203.16;5089538;28;20084;-80
2021/10/28 15:54:01;;;;;;;50.40;26.13;;;;;;;11.43;53.85;99210.75;5086769;28;20407;-80
2021/10/28 16:23:16;;;;;;;69.47;35.80;;;;;;;10.16;56.65;99220.72;5081025;28;20078;-80
2021/10/28 16:25:42;;;;;;;71.90;36.63;;;;;;;10.08;56.83;99213.84;5067143;28;20054;-80
2021/10/28 16:28:08;;;;;;;73.60;38.35;;;;;;;9.98;56.96;99213.88;5084616;28;20876;-79
2021/10/28 16:30:34;;;;;;;78.68;39.50;;;;;;;9.91;57.50;99208.66;5089084;28;20105;-79
2021/10/28 16:32:59;;;;;;;75.85;38.95;;;;;;;9.85;57.51;99209.72;5084634;28;20056;-79
2021/10/28 16:35:25;;;;;;;74.78;38.40;;;;;;;9.83;57.27;99204.53;5085334;28;20050;-80
2021/10/28 16:37:51;;;;;;;65.75;35.55;;;;;;;9.78;57.63;99211.94;5091188;28;20377;-79
2021/10/28 16:40:17;;;;;;;55.00;32.40;;;;;;;9.72;57.74;99204.81;5080452;28;20032;-79
2021/10/28 16:42:42;;;;;;;65.45;34.78;;;;;;;9.68;57.69;99207.25;5085301;28;20132;-79
2021/10/28 16:45:09;;;;;;;75.35;36.45;;;;;;;9.62;57.69;99202.84;5088652;28;20030;-79
2021/10/28 16:47:35;;;;;;;84.18;38.92;;;;;;;9.57;57.70;99213.84;5071490;28;20077;-79
2021/10/28 16:50:02;;;;;;;75.63;39.30;;;;;;;9.52;58.68;99209.16;5088790;28;20016;-79
2021/10/28 16:52:28;;;;;;;71.07;38.28;;;;;;;9.47;58.09;99214.59;5083387;28;20020;-79
2021/10/28 16:54:53;;;;;;;82.38;43.97;;;;;;;9.43;58.15;99210.75;5084163;28;20457;-79
2021/10/28 16:57:19;;;;;;;96.43;51.13;;;;;;;9.39;59.05;99213.22;5082630;28;20044;-79
2021/10/28 16:59:44;;;;;;;90.15;50.72;;;;;;;9.34;58.66;99219.53;5086770;28;20032;-79
2021/10/28 17:02:09;;;;;;;92.20;53.35;;;;;;;9.30;59.18;99218.41;5089564;28;20251;-78
2021/10/28 17:04:35;;;;;;;81.38;48.00;;;;;;;9.25;59.10;99210.19;5088815;28;20016;-80
2021/10/28 17:07:00;;;;;;;83.30;46.03;;;;;;;9.23;59.27;99212.38;5085547;28;20024;-78
2021/10/28 17:09:26;;;;;;;81.07;44.40;;;;;;;9.20;58.72;99207.44;5080603;28;20087;-78
2021/10/28 17:11:51;;;;;;;82.57;45.75;;;;;;;9.17;59.26;99211.50;5079315;28;20022;-77
2021/10/28 17:14:17;;;;;;;102.82;50.20;;;;;;;9.16;59.06;99211.78;5084488;28;20054;-80
2021/10/28 17:16:46;;;;;;;114.22;56.13;;;;;;;9.09;59.70;99215.59;5086561;28;20020;-78
2021/10/28 17:19:16;;;;;;;149.40;68.90;;;;;;;9.05;59.57;99213.69;5084514;28;20032;-78
2021/10/28 17:21:43;;;;;;;169.25;77.32;;;;;;;9.01;59.29;99213.38;5082797;28;20032;-78
2021/10/28 17:24:20;;;;;;;224.95;103.63;;;;;;;8.93;59.07;99214.72;5089311;28;20059;-77
2021/10/28 17:26:46;;;;;;;213.60;98.97;;;;;;;8.86;59.88;99203.19;5087336;28;20028;-78
2021/10/28 17:29:12;;;;;;;202.95;94.57;;;;;;;8.81;60.15;99202.34;5089187;28;20094;-78
2021/10/28 17:31:37;;;;;;;191.05;90.25;;;;;;;8.75;59.92;99209.72;5080807;28;20028;-76
2021/10/28 17:34:04;;;;;;;183.85;86.63;;;;;;;8.68;59.93;99204.47;5080815;28;20039;-75
2021/10/28 17:36:30;;;;;;;173.90;83.80;;;;;;;8.62;59.94;99206.34;5078460;28;20073;-76
2021/10/28 17:38:56;;;;;;;195.43;91.35;;;;;;;8.54;60.81;99209.59;5083515;28;20396;-76
2021/10/28 17:41:22;;;;;;;195.00;87.38;;;;;;;8.49;60.59;99206.81;5090232;28;20115;-77
2021/10/28 17:43:52;;;;;;;172.65;83.15;;;;;;;8.45;60.50;99206.50;5090603;28;20055;-80
2021/10/28 17:46:18;;;;;;;165.55;80.13;;;;;;;8.41;60.85;99202.66;5086383;28;20379;-76
2021/10/28 17:48:43;;;;;;;169.02;80.78;;;;;;;8.38;61.18;99202.34;5093523;28;20032;-78
2021/10/28 17:51:12;;;;;;;153.80;74.57;;;;;;;8.33;61.16;99203.97;5092496;28;20020;-78
2021/10/28 17:53:38;;;;;;;151.63;70.57;;;;;;;8.30;61.00;99203.66;5085340;28;20047;-79
2021/10/28 17:56:04;;;;;;;155.30;73.40;;;;;;;8.28;61.59;99198.47;5081870;28;20097;-79
2021/10/28 17:58:30;;;;;;;133.65;63.58;;;;;;;8.28;61.45;99203.09;5082311;28;20020;-78
2021/10/28 18:00:55;;;;;;;148.65;61.75;;;;;;;8.26;61.40;99192.44;5078925;28;20051;-79
2021/10/28 18:03:23;;;;;;;127.72;57.00;;;;;;;8.23;61.89;99201.16;5092828;28;20032;-79
2021/10/28 18:05:50;;;;;;;109.97;53.05;;;;;;;8.19;61.92;99203.56;5094155;28;20039;-78
2021/10/28 18:08:16;;;;;;;122.53;56.33;;;;;;;8.16;61.73;99195.09;5084776;28;20028;-77
2021/10/28 18:10:41;;;;;;;123.93;54.45;;;;;;;8.15;62.09;99204.38;5093554;28;20101;-79
2021/10/28 18:13:08;;;;;;;113.32;53.00;;;;;;;8.13;62.00;99203.81;5086281;28;20079;-79
2021/10/28 18:15:34;;;;;;;116.88;52.17;;;;;;;8.09;61.64;99200.78;5098198;28;20106;-77
2021/10/28 18:18:01;;;;;;;116.10;54.15;;;;;;;8.05;62.19;99205.94;5091820;28;20116;-80
2021/10/28 18:20:28;;;;;;;118.85;53.67;;;;;;;8.05;62.19;99202.41;5087040;28;20113;-79
2021/10/28 18:22:54;;;;;;;118.95;54.65;;;;;;;8.03;62.34;99197.19;5099925;28;20472;-78
2021/10/28 18:25:21;;;;;;;114.32;56.35;;;;;;;8.00;62.30;99197.69;5096155;28;20028;-77
2021/10/28 18:27:47;;;;;;;121.28;54.50;;;;;;;7.98;62.19;99193.59;5087636;28;20063;-76
2021/10/28 18:30:16;;;;;;;113.93;53.42;;;;;;;7.99;61.98;99195.25;5092810;28;20754;-76
2021/10/28 18:32:43;;;;;;;108.97;53.05;;;;;;;7.97;62.41;99197.41;5097931;28;20035;-74
2021/10/28 18:35:11;;;;;;;105.82;52.55;;;;;;;7.98;62.04;99190.84;5088732;28;20035;-78
2021/10/28 18:37:37;;;;;;;100.38;51.53;;;;;;;7.94;62.12;99196.03;5089866;28;20028;-77
2021/10/28 18:40:03;;;;;;;104.07;52.78;;;;;;;7.92;62.18;99195.47;5089945;28;20111;-77
2021/10/28 18:42:29;;;;;;;108.68;54.15;;;;;;;7.89;62.23;99196.78;5100750;28;20045;-79
2021/10/28 18:44:54;;;;;;;111.50;57.00;;;;;;;7.87;62.42;99190.78;5098611;28;20028;-79
2021/10/28 18:47:20;;;;;;;131.10;62.92;;;;;;;7.86;62.60;99189.13;5083809;28;20027;-81
2021/10/28 18:49:49;;;;;;;163.25;80.60;;;;;;;7.84;62.43;99188.56;5087585;28;20496;-79
2021/10/28 18:52:15;;;;;;;223.27;104.38;;;;;;;7.83;62.48;99186.09;5083179;28;20032;-77
2021/10/28 18:54:40;;;;;;;202.90;98.30;;;;;;;7.81;62.45;99185.53;5091696;28;20024;-81
2021/10/28 18:57:06;;;;;;;215.68;102.32;;;;;;;7.75;62.41;99185.47;5083804;28;20503;-79
2021/10/28 18:59:31;;;;;;;196.52;95.25;;;;;;;7.72;62.54;99186.00;5096068;28;20035;-79
2021/10/28 19:01:57;;;;;;;171.75;81.45;;;;;;;7.70;62.50;99181.91;5089553;28;20024;-80
2021/10/28 19:04:23;;;;;;;141.65;68.85;;;;;;;7.69;62.55;99183.78;5088512;28;20020;-79
2021/10/28 19:06:49;;;;;;;139.77;66.22;;;;;;;7.69;62.56;99178.31;5083552;28;20362;-79
2021/10/28 19:09:14;;;;;;;141.73;68.13;;;;;;;7.71;62.81;99181.63;5093996;28;20028;-79
2021/10/28 19:11:40;;;;;;;136.52;66.43;;;;;;;7.71;62.60;99181.63;5097558;28;20103;-79
2021/10/28 19:14:06;;;;;;;128.05;60.53;;;;;;;7.70;62.69;99182.72;5090627;28;20025;-80
2021/10/28 19:16:31;;;;;;;99.65;47.13;;;;;;;7.69;62.71;99169.34;5092719;28;20024;-79
2021/10/28 19:18:56;;;;;;;84.50;43.72;;;;;;;7.68;62.78;99175.88;5093616;28;20403;-78
2021/10/28 19:21:23;;;;;;;90.30;43.53;;;;;;;7.66;62.45;99167.13;5093928;28;20020;-78
2021/10/28 19:23:48;;;;;;;93.40;44.85;;;;;;;7.63;62.59;99162.16;5093872;28;20103;-79
2021/10/28 19:26:13;;;;;;;85.57;43.65;;;;;;;7.58;62.65;99160.19;5093385;28;20111;-79
2021/10/28 19:28:42;;;;;;;80.82;43.00;;;;;;;7.57;62.88;99161.28;5093059;28;20051;-79
2021/10/28 19:31:17;;;;;;;85.28;42.13;;;;;;;7.55;62.81;99164.28;5075583;28;20019;-78
2021/10/28 19:33:45;;;;;;;84.78;39.63;;;;;;;7.54;62.16;99164.56;5098555;28;20027;-78
2021/10/28 19:36:59;;;;;;;81.20;37.63;;;;;;;7.51;62.69;99168.63;5113318;28;20020;-79
2021/10/28 19:39:20;;;;;;;70.30;37.30;;;;;;;7.49;62.70;99162.59;5078824;28;20070;-79
2021/10/28 19:41:55;;;;;;;75.70;39.00;;;;;;;7.48;62.57;99160.13;5093560;28;20085;-79
2021/10/28 19:47:07;;;;;;;74.72;38.65;;;;;;;7.42;62.36;99151.88;5096286;28;20092;-79
2021/10/28 19:49:34;;;;;;;63.33;34.40;;;;;;;7.44;62.49;99162.53;5101349;28;20126;-78
2021/10/28 19:52:02;;;;;;;71.35;35.45;;;;;;;7.42;62.37;99151.03;5091798;28;20016;-79
2021/10/28 19:54:28;;;;;;;74.07;35.30;;;;;;;7.41;62.25;99147.50;5093479;28;20122;-79
2021/10/28 19:56:54;;;;;;;69.25;36.83;;;;;;;7.41;62.72;99147.50;5093237;28;20032;-79
2021/10/28 19:59:22;;;;;;;70.38;37.70;;;;;;;7.39;62.58;99155.13;5092790;28;20080;-78
2021/10/28 20:01:51;;;;;;;75.50;39.35;;;;;;;7.38;62.40;99149.91;5092828;28;20073;-78
2021/10/28 20:20:25;;;;;;;65.20;32.55;;;;;;;7.13;62.55;99154.03;5098107;28;20100;-79
2021/10/28 20:22:51;;;;;;;63.80;32.75;;;;;;;7.10;62.58;99147.22;5093971;28;20073;-79
2021/10/28 20:25:21;;;;;;;63.97;32.35;;;;;;;7.09;62.53;99142.00;5091322;28;20032;-80
2021/10/28 20:27:49;;;;;;;67.25;32.08;;;;;;;7.08;62.68;99145.81;5097508;28;20418;-78
2021/10/28 20:30:18;;;;;;;60.85;30.35;;;;;;;7.07;62.61;99145.00;5102432;28;20480;-78
2021/10/28 20:32:44;;;;;;;61.67;31.58;;;;;;;7.09;62.64;99144.72;5093006;28;20152;-79
2021/10/28 20:37:39;;;;;;;63.28;31.55;;;;;;;7.11;62.94;99140.69;5087718;28;20101;-79
2021/10/28 20:40:07;;;;;;;53.80;29.20;;;;;;;7.15;62.94;99139.06;5088569;28;20400;-80
2021/10/28 20:42:41;;;;;;;62.10;32.13;;;;;;;7.19;62.79;99136.66;5090004;28;20028;-77
2021/10/28 20:45:12;;;;;;;62.28;32.90;;;;;;;7.23;62.54;99139.69;5085086;28;20119;-77